sensor_id;sensor_type;location;lat;lon;timestamp;temperature;humidity
69084;SHT31;56185;48.526;9.044;2023-01-04T00:00:19;2.41;85.94
69084;SHT31;56185;48.526;9.044;2023-01-04T00:02:44;2.40;85.67
69084;SHT31;56185;48.526;9.044;2023-01-04T00:05:10;2.43;85.80
69084;SHT31;56185;48.526;9.044;2023-01-04T00:07:35;2.30;86.67
69084;SHT31;56185;48.526;9.044;2023-01-04T00:10:00;2.38;86.01
69084;SHT31;56185;48.526;9.044;2023-01-04T00:12:25;2.46;85.94
69084;SHT31;56185;48.526;9.044;2023-01-04T00:14:51;2.38;85.63
69084;SHT31;56185;48.526;9.044;2023-01-04T00:17:16;2.65;86.05
69084;SHT31;56185;48.526;9.044;2023-01-04T00:19:41;2.51;86.42
69084;SHT31;56185;48.526;9.044;2023-01-04T00:22:06;2.36;87.21
69084;SHT31;56185;48.526;9.044;2023-01-04T00:24:32;2.33;87.73
69084;SHT31;56185;48.526;9.044;2023-01-04T00:26:57;2.33;87.51
69084;SHT31;56185;48.526;9.044;2023-01-04T00:29:22;2.34;87.29
69084;SHT31;56185;48.526;9.044;2023-01-04T00:31:48;2.34;87.20
69084;SHT31;56185;48.526;9.044;2023-01-04T00:34:14;2.34;87.58
69084;SHT31;56185;48.526;9.044;2023-01-04T00:36:40;2.37;87.32
69084;SHT31;56185;48.526;9.044;2023-01-04T00:39:06;2.44;87.45
69084;SHT31;56185;48.526;9.044;2023-01-04T00:44:10;2.43;87.49
69084;SHT31;56185;48.526;9.044;2023-01-04T00:46:36;2.36;87.73
69084;SHT31;56185;48.526;9.044;2023-01-04T00:49:02;2.36;87.98
69084;SHT31;56185;48.526;9.044;2023-01-04T00:51:29;2.34;88.25
69084;SHT31;56185;48.526;9.044;2023-01-04T00:53:54;2.43;88.88
69084;SHT31;56185;48.526;9.044;2023-01-04T00:56:20;2.40;87.89
69084;SHT31;56185;48.526;9.044;2023-01-04T00:58:45;2.48;88.43
69084;SHT31;56185;48.526;9.044;2023-01-04T01:01:10;2.58;87.95
69084;SHT31;56185;48.526;9.044;2023-01-04T01:03:35;2.56;88.14
69084;SHT31;56185;48.526;9.044;2023-01-04T01:06:02;2.58;87.79
69084;SHT31;56185;48.526;9.044;2023-01-04T01:08:27;2.53;87.98
69084;SHT31;56185;48.526;9.044;2023-01-04T01:10:53;2.53;88.65
69084;SHT31;56185;48.526;9.044;2023-01-04T01:13:22;2.60;88.27
69084;SHT31;56185;48.526;9.044;2023-01-04T01:15:47;2.65;88.15
69084;SHT31;56185;48.526;9.044;2023-01-04T01:18:13;2.62;88.20
69084;SHT31;56185;48.526;9.044;2023-01-04T01:20:43;2.57;89.31
69084;SHT31;56185;48.526;9.044;2023-01-04T01:23:12;2.65;89.00
69084;SHT31;56185;48.526;9.044;2023-01-04T01:25:38;2.61;88.94
69084;SHT31;56185;48.526;9.044;2023-01-04T01:28:04;2.57;89.45
69084;SHT31;56185;48.526;9.044;2023-01-04T01:30:29;2.64;88.97
69084;SHT31;56185;48.526;9.044;2023-01-04T01:32:54;2.81;88.52
69084;SHT31;56185;48.526;9.044;2023-01-04T01:35:19;2.88;88.79
69084;SHT31;56185;48.526;9.044;2023-01-04T01:37:45;2.88;88.30
69084;SHT31;56185;48.526;9.044;2023-01-04T01:40:10;2.85;88.37
69084;SHT31;56185;48.526;9.044;2023-01-04T01:42:35;2.81;88.76
69084;SHT31;56185;48.526;9.044;2023-01-04T01:45:04;2.91;88.76
69084;SHT31;56185;48.526;9.044;2023-01-04T01:47:42;3.02;87.99
69084;SHT31;56185;48.526;9.044;2023-01-04T01:50:22;3.11;88.09
69084;SHT31;56185;48.526;9.044;2023-01-04T01:52:48;2.94;88.27
69084;SHT31;56185;48.526;9.044;2023-01-04T01:55:14;3.05;87.46
69084;SHT31;56185;48.526;9.044;2023-01-04T01:57:40;3.02;87.66
69084;SHT31;56185;48.526;9.044;2023-01-04T02:00:12;2.98;88.55
69084;SHT31;56185;48.526;9.044;2023-01-04T02:03:30;3.05;87.64
69084;SHT31;56185;48.526;9.044;2023-01-04T02:05:51;2.95;88.36
69084;SHT31;56185;48.526;9.044;2023-01-04T02:08:19;3.01;88.06
69084;SHT31;56185;48.526;9.044;2023-01-04T02:10:46;2.88;88.45
69084;SHT31;56185;48.526;9.044;2023-01-04T02:13:15;2.95;88.27
69084;SHT31;56185;48.526;9.044;2023-01-04T02:16:09;2.87;88.60
69084;SHT31;56185;48.526;9.044;2023-01-04T02:18:53;2.95;88.29
69084;SHT31;56185;48.526;9.044;2023-01-04T02:21:22;2.94;88.75
69084;SHT31;56185;48.526;9.044;2023-01-04T02:31:58;2.88;88.46
69084;SHT31;56185;48.526;9.044;2023-01-04T02:34:44;2.85;88.27
69084;SHT31;56185;48.526;9.044;2023-01-04T02:40:20;2.84;88.46
69084;SHT31;56185;48.526;9.044;2023-01-04T02:43:02;2.94;88.29
69084;SHT31;56185;48.526;9.044;2023-01-04T02:45:37;2.91;87.75
69084;SHT31;56185;48.526;9.044;2023-01-04T02:48:06;3.02;87.68
69084;SHT31;56185;48.526;9.044;2023-01-04T02:50:39;2.85;88.01
69084;SHT31;56185;48.526;9.044;2023-01-04T02:53:22;2.75;87.90
69084;SHT31;56185;48.526;9.044;2023-01-04T02:59:02;2.54;88.74
69084;SHT31;56185;48.526;9.044;2023-01-04T03:01:41;2.67;88.21
69084;SHT31;56185;48.526;9.044;2023-01-04T03:04:38;2.61;88.45
69084;SHT31;56185;48.526;9.044;2023-01-04T03:07:10;2.60;88.87
69084;SHT31;56185;48.526;9.044;2023-01-04T03:09:39;2.51;88.70
69084;SHT31;56185;48.526;9.044;2023-01-04T03:12:11;2.46;89.03
69084;SHT31;56185;48.526;9.044;2023-01-04T03:14:44;2.38;88.97
69084;SHT31;56185;48.526;9.044;2023-01-04T03:17:12;2.43;88.85
69084;SHT31;56185;48.526;9.044;2023-01-04T03:19:39;2.56;89.29
69084;SHT31;56185;48.526;9.044;2023-01-04T03:22:06;2.48;89.06
69084;SHT31;56185;48.526;9.044;2023-01-04T03:24:32;2.36;89.92
69084;SHT31;56185;48.526;9.044;2023-01-04T03:27:04;2.33;89.31
69084;SHT31;56185;48.526;9.044;2023-01-04T03:29:42;2.57;87.95
69084;SHT31;56185;48.526;9.044;2023-01-04T03:32:11;2.38;89.30
69084;SHT31;56185;48.526;9.044;2023-01-04T03:34:40;2.37;89.50
69084;SHT31;56185;48.526;9.044;2023-01-04T03:39:40;2.36;89.02
69084;SHT31;56185;48.526;9.044;2023-01-04T03:50:38;2.38;88.52
69084;SHT31;56185;48.526;9.044;2023-01-04T03:53:06;2.29;87.14
69084;SHT31;56185;48.526;9.044;2023-01-04T03:55:33;2.40;87.19
69084;SHT31;56185;48.526;9.044;2023-01-04T03:57:59;2.34;88.61
69084;SHT31;56185;48.526;9.044;2023-01-04T04:00:24;2.34;88.07
69084;SHT31;56185;48.526;9.044;2023-01-04T04:02:50;2.32;88.21
69084;SHT31;56185;48.526;9.044;2023-01-04T04:05:17;2.22;88.00
69084;SHT31;56185;48.526;9.044;2023-01-04T04:07:43;2.27;87.71
69084;SHT31;56185;48.526;9.044;2023-01-04T04:10:09;2.36;88.09
69084;SHT31;56185;48.526;9.044;2023-01-04T04:12:34;2.29;87.45
69084;SHT31;56185;48.526;9.044;2023-01-04T04:14:59;2.33;87.41
69084;SHT31;56185;48.526;9.044;2023-01-04T04:17:25;2.25;87.64
69084;SHT31;56185;48.526;9.044;2023-01-04T04:19:50;2.20;88.27
69084;SHT31;56185;48.526;9.044;2023-01-04T04:22:15;2.23;87.57
69084;SHT31;56185;48.526;9.044;2023-01-04T04:24:40;2.17;87.53
69084;SHT31;56185;48.526;9.044;2023-01-04T04:27:05;2.12;87.54
69084;SHT31;56185;48.526;9.044;2023-01-04T04:29:31;2.05;88.78
69084;SHT31;56185;48.526;9.044;2023-01-04T04:31:56;2.37;88.07
69084;SHT31;56185;48.526;9.044;2023-01-04T04:34:21;2.40;87.89
69084;SHT31;56185;48.526;9.044;2023-01-04T04:36:46;2.29;87.60
69084;SHT31;56185;48.526;9.044;2023-01-04T04:39:12;2.22;87.21
69084;SHT31;56185;48.526;9.044;2023-01-04T04:41:38;2.23;87.38
69084;SHT31;56185;48.526;9.044;2023-01-04T04:44:13;2.23;87.98
69084;SHT31;56185;48.526;9.044;2023-01-04T04:46:40;2.22;87.44
69084;SHT31;56185;48.526;9.044;2023-01-04T04:49:05;2.30;87.68
69084;SHT31;56185;48.526;9.044;2023-01-04T04:51:31;2.32;87.25
69084;SHT31;56185;48.526;9.044;2023-01-04T04:53:56;2.30;87.16
69084;SHT31;56185;48.526;9.044;2023-01-04T04:56:22;2.36;87.30
69084;SHT31;56185;48.526;9.044;2023-01-04T04:58:48;2.33;87.73
69084;SHT31;56185;48.526;9.044;2023-01-04T05:01:13;2.41;87.71
69084;SHT31;56185;48.526;9.044;2023-01-04T05:03:39;2.38;87.85
69084;SHT31;56185;48.526;9.044;2023-01-04T05:06:04;2.38;87.92
69084;SHT31;56185;48.526;9.044;2023-01-04T05:08:29;2.51;87.82
69084;SHT31;56185;48.526;9.044;2023-01-04T05:10:54;2.65;86.96
69084;SHT31;56185;48.526;9.044;2023-01-04T05:13:20;2.68;87.70
69084;SHT31;56185;48.526;9.044;2023-01-04T05:15:48;2.56;86.84
69084;SHT31;56185;48.526;9.044;2023-01-04T05:18:16;2.61;87.66
69084;SHT31;56185;48.526;9.044;2023-01-04T05:20:43;2.54;88.44
69084;SHT31;56185;48.526;9.044;2023-01-04T05:23:10;2.60;87.50
69084;SHT31;56185;48.526;9.044;2023-01-04T05:25:36;2.58;87.79
69084;SHT31;56185;48.526;9.044;2023-01-04T05:28:01;2.64;87.47
69084;SHT31;56185;48.526;9.044;2023-01-04T05:30:27;2.64;87.33
69084;SHT31;56185;48.526;9.044;2023-01-04T05:32:52;2.68;87.24
69084;SHT31;56185;48.526;9.044;2023-01-04T05:35:17;2.74;86.99
69084;SHT31;56185;48.526;9.044;2023-01-04T05:37:42;2.73;86.89
69084;SHT31;56185;48.526;9.044;2023-01-04T05:40:08;2.84;86.47
69084;SHT31;56185;48.526;9.044;2023-01-04T05:42:33;2.84;86.52
69084;SHT31;56185;48.526;9.044;2023-01-04T05:44:59;2.89;86.61
69084;SHT31;56185;48.526;9.044;2023-01-04T05:47:25;2.85;86.55
69084;SHT31;56185;48.526;9.044;2023-01-04T05:49:51;2.83;86.77
69084;SHT31;56185;48.526;9.044;2023-01-04T05:52:17;2.88;86.85
69084;SHT31;56185;48.526;9.044;2023-01-04T05:54:42;2.88;86.40
69084;SHT31;56185;48.526;9.044;2023-01-04T05:57:08;2.81;87.31
69084;SHT31;56185;48.526;9.044;2023-01-04T05:59:34;2.85;87.24
69084;SHT31;56185;48.526;9.044;2023-01-04T06:01:59;2.87;87.36
69084;SHT31;56185;48.526;9.044;2023-01-04T06:04:24;2.98;87.03
69084;SHT31;56185;48.526;9.044;2023-01-04T06:06:49;3.05;86.79
69084;SHT31;56185;48.526;9.044;2023-01-04T06:09:15;3.01;86.75
69084;SHT31;56185;48.526;9.044;2023-01-04T06:11:40;2.99;87.12
69084;SHT31;56185;48.526;9.044;2023-01-04T06:14:05;2.99;87.07
69084;SHT31;56185;48.526;9.044;2023-01-04T06:16:31;2.98;87.21
69084;SHT31;56185;48.526;9.044;2023-01-04T06:18:56;3.08;86.54
69084;SHT31;56185;48.526;9.044;2023-01-04T06:21:21;3.01;86.83
69084;SHT31;56185;48.526;9.044;2023-01-04T06:23:47;3.08;86.37
69084;SHT31;56185;48.526;9.044;2023-01-04T06:26:12;3.01;86.81
69084;SHT31;56185;48.526;9.044;2023-01-04T06:28:37;3.04;86.93
69084;SHT31;56185;48.526;9.044;2023-01-04T06:31:04;3.13;86.56
69084;SHT31;56185;48.526;9.044;2023-01-04T06:33:29;3.15;87.08
69084;SHT31;56185;48.526;9.044;2023-01-04T06:35:54;3.11;86.65
69084;SHT31;56185;48.526;9.044;2023-01-04T06:38:20;3.16;87.03
69084;SHT31;56185;48.526;9.044;2023-01-04T06:40:45;3.18;86.69
69084;SHT31;56185;48.526;9.044;2023-01-04T06:43:10;3.26;87.56
69084;SHT31;56185;48.526;9.044;2023-01-04T06:45:36;3.29;87.20
69084;SHT31;56185;48.526;9.044;2023-01-04T06:48:01;3.30;86.45
69084;SHT31;56185;48.526;9.044;2023-01-04T06:50:26;3.32;86.28
69084;SHT31;56185;48.526;9.044;2023-01-04T06:52:51;3.32;86.27
69084;SHT31;56185;48.526;9.044;2023-01-04T06:55:17;3.29;86.35
69084;SHT31;56185;48.526;9.044;2023-01-04T06:57:42;3.40;86.89
69084;SHT31;56185;48.526;9.044;2023-01-04T07:00:08;3.42;87.18
69084;SHT31;56185;48.526;9.044;2023-01-04T07:02:33;3.44;86.97
69084;SHT31;56185;48.526;9.044;2023-01-04T07:04:59;3.29;86.93
69084;SHT31;56185;48.526;9.044;2023-01-04T07:07:24;3.30;87.05
69084;SHT31;56185;48.526;9.044;2023-01-04T07:09:49;3.47;86.09
69084;SHT31;56185;48.526;9.044;2023-01-04T07:12:15;3.43;86.44
69084;SHT31;56185;48.526;9.044;2023-01-04T07:14:40;3.57;86.09
69084;SHT31;56185;48.526;9.044;2023-01-04T07:17:05;3.56;86.35
69084;SHT31;56185;48.526;9.044;2023-01-04T07:19:30;3.50;86.54
69084;SHT31;56185;48.526;9.044;2023-01-04T07:21:56;3.50;86.68
69084;SHT31;56185;48.526;9.044;2023-01-04T07:24:21;3.47;86.77
69084;SHT31;56185;48.526;9.044;2023-01-04T07:26:46;3.49;86.94
69084;SHT31;56185;48.526;9.044;2023-01-04T07:29:14;3.47;88.09
69084;SHT31;56185;48.526;9.044;2023-01-04T07:31:40;3.50;88.56
69084;SHT31;56185;48.526;9.044;2023-01-04T07:34:06;3.53;89.72
69084;SHT31;56185;48.526;9.044;2023-01-04T07:36:31;3.64;90.01
69084;SHT31;56185;48.526;9.044;2023-01-04T07:38:58;3.69;89.42
69084;SHT31;56185;48.526;9.044;2023-01-04T07:41:24;3.80;89.63
69084;SHT31;56185;48.526;9.044;2023-01-04T07:43:49;3.84;89.40
69084;SHT31;56185;48.526;9.044;2023-01-04T07:46:14;3.95;89.59
69084;SHT31;56185;48.526;9.044;2023-01-04T07:48:39;3.99;90.13
69084;SHT31;56185;48.526;9.044;2023-01-04T07:51:05;4.08;90.11
69084;SHT31;56185;48.526;9.044;2023-01-04T07:53:31;4.16;89.99
69084;SHT31;56185;48.526;9.044;2023-01-04T07:55:57;4.32;89.54
69084;SHT31;56185;48.526;9.044;2023-01-04T07:58:23;4.36;89.68
69084;SHT31;56185;48.526;9.044;2023-01-04T08:00:48;4.49;89.34
69084;SHT31;56185;48.526;9.044;2023-01-04T08:03:14;4.48;89.91
69084;SHT31;56185;48.526;9.044;2023-01-04T08:05:39;4.52;89.91
69084;SHT31;56185;48.526;9.044;2023-01-04T08:08:04;4.65;89.49
69084;SHT31;56185;48.526;9.044;2023-01-04T08:10:30;4.69;89.99
69084;SHT31;56185;48.526;9.044;2023-01-04T08:12:57;4.76;89.90
69084;SHT31;56185;48.526;9.044;2023-01-04T08:15:22;4.81;89.39
69084;SHT31;56185;48.526;9.044;2023-01-04T08:17:48;4.87;89.30
69084;SHT31;56185;48.526;9.044;2023-01-04T08:20:13;4.96;89.17
69084;SHT31;56185;48.526;9.044;2023-01-04T08:22:38;4.94;89.60
69084;SHT31;56185;48.526;9.044;2023-01-04T08:25:04;4.79;89.26
69084;SHT31;56185;48.526;9.044;2023-01-04T08:27:29;4.91;89.30
69084;SHT31;56185;48.526;9.044;2023-01-04T08:29:54;5.05;89.30
69084;SHT31;56185;48.526;9.044;2023-01-04T08:32:20;5.01;89.27
69084;SHT31;56185;48.526;9.044;2023-01-04T08:34:45;5.03;89.49
69084;SHT31;56185;48.526;9.044;2023-01-04T08:37:10;5.11;89.44
69084;SHT31;56185;48.526;9.044;2023-01-04T08:39:35;5.14;87.99
69084;SHT31;56185;48.526;9.044;2023-01-04T08:42:02;5.21;88.23
69084;SHT31;56185;48.526;9.044;2023-01-04T08:44:27;5.21;88.27
69084;SHT31;56185;48.526;9.044;2023-01-04T08:46:53;5.28;88.14
69084;SHT31;56185;48.526;9.044;2023-01-04T08:49:19;5.28;88.47
69084;SHT31;56185;48.526;9.044;2023-01-04T08:51:45;5.31;88.63
69084;SHT31;56185;48.526;9.044;2023-01-04T08:54:10;5.39;87.92
69084;SHT31;56185;48.526;9.044;2023-01-04T08:56:36;5.41;88.09
69084;SHT31;56185;48.526;9.044;2023-01-04T08:59:02;5.41;88.13
69084;SHT31;56185;48.526;9.044;2023-01-04T09:01:27;5.39;88.65
69084;SHT31;56185;48.526;9.044;2023-01-04T09:03:55;5.36;88.24
69084;SHT31;56185;48.526;9.044;2023-01-04T09:06:20;5.35;87.53
69084;SHT31;56185;48.526;9.044;2023-01-04T09:08:45;5.34;87.47
69084;SHT31;56185;48.526;9.044;2023-01-04T09:11:16;5.41;86.00
69084;SHT31;56185;48.526;9.044;2023-01-04T09:13:42;5.54;86.23
69084;SHT31;56185;48.526;9.044;2023-01-04T09:16:11;5.58;86.48
69084;SHT31;56185;48.526;9.044;2023-01-04T09:18:36;5.62;85.38
69084;SHT31;56185;48.526;9.044;2023-01-04T09:21:09;5.70;83.75
69084;SHT31;56185;48.526;9.044;2023-01-04T09:23:37;5.83;83.06
69084;SHT31;56185;48.526;9.044;2023-01-04T09:26:07;5.90;82.20
69084;SHT31;56185;48.526;9.044;2023-01-04T09:28:32;6.00;82.26
69084;SHT31;56185;48.526;9.044;2023-01-04T09:30:58;6.09;80.55
69084;SHT31;56185;48.526;9.044;2023-01-04T09:33:23;6.21;80.52
69084;SHT31;56185;48.526;9.044;2023-01-04T09:35:48;6.24;80.81
69084;SHT31;56185;48.526;9.044;2023-01-04T09:38:13;6.34;79.33
69084;SHT31;56185;48.526;9.044;2023-01-04T09:40:53;6.41;80.38
69084;SHT31;56185;48.526;9.044;2023-01-04T09:43:21;6.42;79.50
69084;SHT31;56185;48.526;9.044;2023-01-04T09:45:51;6.44;78.84
69084;SHT31;56185;48.526;9.044;2023-01-04T09:48:22;6.55;78.65
69084;SHT31;56185;48.526;9.044;2023-01-04T09:51:04;6.59;79.06
69084;SHT31;56185;48.526;9.044;2023-01-04T09:53:38;6.69;77.81
69084;SHT31;56185;48.526;9.044;2023-01-04T09:56:18;6.75;77.83
69084;SHT31;56185;48.526;9.044;2023-01-04T09:58:45;6.62;78.42
69084;SHT31;56185;48.526;9.044;2023-01-04T10:01:19;6.78;77.68
69084;SHT31;56185;48.526;9.044;2023-01-04T10:03:49;6.78;78.69
69084;SHT31;56185;48.526;9.044;2023-01-04T10:06:17;6.74;77.68
69084;SHT31;56185;48.526;9.044;2023-01-04T10:08:42;6.81;77.74
69084;SHT31;56185;48.526;9.044;2023-01-04T10:11:41;6.86;78.39
69084;SHT31;56185;48.526;9.044;2023-01-04T10:25:30;6.95;78.66
69084;SHT31;56185;48.526;9.044;2023-01-04T10:28:07;6.95;79.28
69084;SHT31;56185;48.526;9.044;2023-01-04T10:30:47;7.06;77.74
69084;SHT31;56185;48.526;9.044;2023-01-04T10:35:44;7.00;78.58
69084;SHT31;56185;48.526;9.044;2023-01-04T10:38:21;7.09;76.98
69084;SHT31;56185;48.526;9.044;2023-01-04T10:40:48;7.06;76.66
69084;SHT31;56185;48.526;9.044;2023-01-04T10:46:02;7.23;77.28
69084;SHT31;56185;48.526;9.044;2023-01-04T10:51:02;7.23;77.50
69084;SHT31;56185;48.526;9.044;2023-01-04T10:58:38;7.38;77.68
69084;SHT31;56185;48.526;9.044;2023-01-04T11:01:16;7.43;77.75
69084;SHT31;56185;48.526;9.044;2023-01-04T11:09:17;7.60;77.14
69084;SHT31;56185;48.526;9.044;2023-01-04T11:11:44;7.64;75.75
69084;SHT31;56185;48.526;9.044;2023-01-04T11:14:11;7.78;77.45
69084;SHT31;56185;48.526;9.044;2023-01-04T11:16:38;7.79;77.54
69084;SHT31;56185;48.526;9.044;2023-01-04T11:19:05;7.78;76.41
69084;SHT31;56185;48.526;9.044;2023-01-04T11:21:38;7.86;75.82
69084;SHT31;56185;48.526;9.044;2023-01-04T11:24:05;7.85;75.28
69084;SHT31;56185;48.526;9.044;2023-01-04T11:26:36;7.96;76.05
69084;SHT31;56185;48.526;9.044;2023-01-04T11:29:06;8.01;75.92
69084;SHT31;56185;48.526;9.044;2023-01-04T11:34:05;7.98;76.46
69084;SHT31;56185;48.526;9.044;2023-01-04T11:36:33;7.95;76.91
69084;SHT31;56185;48.526;9.044;2023-01-04T11:38:59;8.09;75.72
69084;SHT31;56185;48.526;9.044;2023-01-04T11:41:25;8.13;76.95
69084;SHT31;56185;48.526;9.044;2023-01-04T11:44:02;8.16;76.84
69084;SHT31;56185;48.526;9.044;2023-01-04T11:46:29;8.16;76.71
69084;SHT31;56185;48.526;9.044;2023-01-04T11:48:55;8.19;75.95
69084;SHT31;56185;48.526;9.044;2023-01-04T11:53:57;8.28;76.68
69084;SHT31;56185;48.526;9.044;2023-01-04T11:56:24;8.28;76.86
69084;SHT31;56185;48.526;9.044;2023-01-04T12:01:45;8.25;76.84
69084;SHT31;56185;48.526;9.044;2023-01-04T12:04:23;8.29;76.39
69084;SHT31;56185;48.526;9.044;2023-01-04T12:07:04;8.29;77.24
69084;SHT31;56185;48.526;9.044;2023-01-04T12:09:31;8.34;77.92
69084;SHT31;56185;48.526;9.044;2023-01-04T12:11:59;8.25;77.64
69084;SHT31;56185;48.526;9.044;2023-01-04T12:14:27;8.33;77.22
69084;SHT31;56185;48.526;9.044;2023-01-04T12:17:03;8.42;77.04
69084;SHT31;56185;48.526;9.044;2023-01-04T12:19:30;8.33;77.43
69084;SHT31;56185;48.526;9.044;2023-01-04T12:21:59;8.43;77.75
69084;SHT31;56185;48.526;9.044;2023-01-04T12:24:29;8.42;77.46
69084;SHT31;56185;48.526;9.044;2023-01-04T12:26:55;8.53;77.80
69084;SHT31;56185;48.526;9.044;2023-01-04T12:31:46;8.70;76.74
69084;SHT31;56185;48.526;9.044;2023-01-04T12:47:04;8.87;77.75
69084;SHT31;56185;48.526;9.044;2023-01-04T12:59:59;8.85;76.83
69084;SHT31;56185;48.526;9.044;2023-01-04T13:02:25;9.00;77.42
69084;SHT31;56185;48.526;9.044;2023-01-04T13:04:54;9.04;76.57
69084;SHT31;56185;48.526;9.044;2023-01-04T13:07:48;9.01;77.17
69084;SHT31;56185;48.526;9.044;2023-01-04T13:23:33;9.16;76.80
69084;SHT31;56185;48.526;9.044;2023-01-04T13:29:19;9.29;76.67
69084;SHT31;56185;48.526;9.044;2023-01-04T13:34:53;9.26;77.62
69084;SHT31;56185;48.526;9.044;2023-01-04T13:37:31;9.40;77.45
69084;SHT31;56185;48.526;9.044;2023-01-04T13:40:21;9.44;77.40
69084;SHT31;56185;48.526;9.044;2023-01-04T13:42:49;9.39;77.76
69084;SHT31;56185;48.526;9.044;2023-01-04T13:47:42;9.53;77.10
69084;SHT31;56185;48.526;9.044;2023-01-04T13:50:28;9.44;77.55
69084;SHT31;56185;48.526;9.044;2023-01-04T13:52:54;9.50;77.72
69084;SHT31;56185;48.526;9.044;2023-01-04T13:57:54;9.56;77.90
69084;SHT31;56185;48.526;9.044;2023-01-04T14:00:19;9.64;77.24
69084;SHT31;56185;48.526;9.044;2023-01-04T14:02:45;9.62;77.71
69084;SHT31;56185;48.526;9.044;2023-01-04T14:05:15;9.73;77.80
69084;SHT31;56185;48.526;9.044;2023-01-04T14:07:42;9.70;77.53
69084;SHT31;56185;48.526;9.044;2023-01-04T14:10:15;9.76;77.24
69084;SHT31;56185;48.526;9.044;2023-01-04T14:12:44;9.76;77.40
69084;SHT31;56185;48.526;9.044;2023-01-04T14:15:21;9.86;77.06
69084;SHT31;56185;48.526;9.044;2023-01-04T14:17:52;9.86;77.18
69084;SHT31;56185;48.526;9.044;2023-01-04T14:30:48;9.91;77.63
69084;SHT31;56185;48.526;9.044;2023-01-04T14:33:14;9.91;77.41
69084;SHT31;56185;48.526;9.044;2023-01-04T14:35:41;9.90;77.14
69084;SHT31;56185;48.526;9.044;2023-01-04T14:38:14;9.91;76.90
69084;SHT31;56185;48.526;9.044;2023-01-04T14:40:40;9.89;77.48
69084;SHT31;56185;48.526;9.044;2023-01-04T14:43:35;9.94;76.57
69084;SHT31;56185;48.526;9.044;2023-01-04T14:46:00;9.98;76.74
69084;SHT31;56185;48.526;9.044;2023-01-04T14:48:28;9.93;76.40
69084;SHT31;56185;48.526;9.044;2023-01-04T14:50:53;9.94;76.59
69084;SHT31;56185;48.526;9.044;2023-01-04T14:53:19;9.98;77.08
69084;SHT31;56185;48.526;9.044;2023-01-04T14:55:44;9.94;76.92
69084;SHT31;56185;48.526;9.044;2023-01-04T14:58:09;10.02;76.66
69084;SHT31;56185;48.526;9.044;2023-01-04T15:00:35;9.95;76.74
69084;SHT31;56185;48.526;9.044;2023-01-04T15:03:00;9.98;76.56
69084;SHT31;56185;48.526;9.044;2023-01-04T15:05:25;9.94;77.03
69084;SHT31;56185;48.526;9.044;2023-01-04T15:07:51;9.95;76.90
69084;SHT31;56185;48.526;9.044;2023-01-04T15:10:24;9.89;76.84
69084;SHT31;56185;48.526;9.044;2023-01-04T15:12:50;9.86;77.36
69084;SHT31;56185;48.526;9.044;2023-01-04T15:15:16;9.87;76.86
69084;SHT31;56185;48.526;9.044;2023-01-04T15:17:41;9.84;76.86
69084;SHT31;56185;48.526;9.044;2023-01-04T15:20:07;9.93;76.94
69084;SHT31;56185;48.526;9.044;2023-01-04T15:22:33;9.79;76.81
69084;SHT31;56185;48.526;9.044;2023-01-04T15:24:58;9.83;76.88
69084;SHT31;56185;48.526;9.044;2023-01-04T15:27:23;9.89;76.77
69084;SHT31;56185;48.526;9.044;2023-01-04T15:29:49;9.87;76.56
69084;SHT31;56185;48.526;9.044;2023-01-04T15:32:14;9.84;76.41
69084;SHT31;56185;48.526;9.044;2023-01-04T15:34:39;9.86;76.51
69084;SHT31;56185;48.526;9.044;2023-01-04T15:37:04;9.83;76.63
69084;SHT31;56185;48.526;9.044;2023-01-04T15:39:30;9.86;76.79
69084;SHT31;56185;48.526;9.044;2023-01-04T15:41:55;9.77;77.14
69084;SHT31;56185;48.526;9.044;2023-01-04T15:44:20;9.83;76.62
69084;SHT31;56185;48.526;9.044;2023-01-04T15:46:45;9.74;77.21
69084;SHT31;56185;48.526;9.044;2023-01-04T15:49:11;9.72;76.89
69084;SHT31;56185;48.526;9.044;2023-01-04T15:51:36;9.76;76.38
69084;SHT31;56185;48.526;9.044;2023-01-04T15:54:01;9.72;77.30
69084;SHT31;56185;48.526;9.044;2023-01-04T15:56:26;9.69;77.15
69084;SHT31;56185;48.526;9.044;2023-01-04T15:58:53;9.67;77.25
69084;SHT31;56185;48.526;9.044;2023-01-04T16:01:18;9.74;77.28
69084;SHT31;56185;48.526;9.044;2023-01-04T16:03:43;9.80;76.96
69084;SHT31;56185;48.526;9.044;2023-01-04T16:06:15;9.76;77.20
69084;SHT31;56185;48.526;9.044;2023-01-04T16:08:41;9.73;76.92
69084;SHT31;56185;48.526;9.044;2023-01-04T16:11:15;9.80;77.04
69084;SHT31;56185;48.526;9.044;2023-01-04T16:13:42;9.80;77.19
69084;SHT31;56185;48.526;9.044;2023-01-04T16:16:09;9.73;77.35
69084;SHT31;56185;48.526;9.044;2023-01-04T16:18:35;9.72;77.52
69084;SHT31;56185;48.526;9.044;2023-01-04T16:21:04;9.70;77.47
69084;SHT31;56185;48.526;9.044;2023-01-04T16:23:30;9.70;77.46
69084;SHT31;56185;48.526;9.044;2023-01-04T16:26:12;9.83;77.10
69084;SHT31;56185;48.526;9.044;2023-01-04T16:28:38;9.79;77.36
69084;SHT31;56185;48.526;9.044;2023-01-04T16:31:04;9.79;77.10
69084;SHT31;56185;48.526;9.044;2023-01-04T16:33:29;9.84;77.06
69084;SHT31;56185;48.526;9.044;2023-01-04T16:36:06;9.81;77.29
69084;SHT31;56185;48.526;9.044;2023-01-04T16:38:39;9.80;77.33
69084;SHT31;56185;48.526;9.044;2023-01-04T16:41:06;9.84;77.09
69084;SHT31;56185;48.526;9.044;2023-01-04T16:43:41;9.84;77.41
69084;SHT31;56185;48.526;9.044;2023-01-04T16:48:34;9.87;77.11
69084;SHT31;56185;48.526;9.044;2023-01-04T16:51:00;9.90;77.04
69084;SHT31;56185;48.526;9.044;2023-01-04T16:53:25;9.95;76.96
69084;SHT31;56185;48.526;9.044;2023-01-04T16:55:50;9.91;77.22
69084;SHT31;56185;48.526;9.044;2023-01-04T16:58:15;9.90;77.12
69084;SHT31;56185;48.526;9.044;2023-01-04T17:00:40;9.95;76.93
69084;SHT31;56185;48.526;9.044;2023-01-04T17:03:06;9.79;77.25
69084;SHT31;56185;48.526;9.044;2023-01-04T17:05:38;9.83;77.62
69084;SHT31;56185;48.526;9.044;2023-01-04T17:08:03;9.89;77.54
69084;SHT31;56185;48.526;9.044;2023-01-04T17:10:28;9.81;77.49
69084;SHT31;56185;48.526;9.044;2023-01-04T17:12:54;9.83;77.45
69084;SHT31;56185;48.526;9.044;2023-01-04T17:15:19;9.87;77.34
69084;SHT31;56185;48.526;9.044;2023-01-04T17:17:44;9.80;77.80
69084;SHT31;56185;48.526;9.044;2023-01-04T17:20:09;9.69;78.14
69084;SHT31;56185;48.526;9.044;2023-01-04T17:22:35;9.76;77.91
69084;SHT31;56185;48.526;9.044;2023-01-04T17:25:00;9.72;78.02
69084;SHT31;56185;48.526;9.044;2023-01-04T17:27:25;9.64;78.31
69084;SHT31;56185;48.526;9.044;2023-01-04T17:29:50;9.66;78.54
69084;SHT31;56185;48.526;9.044;2023-01-04T17:32:16;9.72;78.00
69084;SHT31;56185;48.526;9.044;2023-01-04T17:34:41;9.72;78.21
69084;SHT31;56185;48.526;9.044;2023-01-04T17:37:09;9.69;78.41
69084;SHT31;56185;48.526;9.044;2023-01-04T17:39:34;9.74;78.10
69084;SHT31;56185;48.526;9.044;2023-01-04T17:42:00;9.77;77.80
69084;SHT31;56185;48.526;9.044;2023-01-04T17:44:26;9.70;77.70
69084;SHT31;56185;48.526;9.044;2023-01-04T17:46:51;9.77;78.09
69084;SHT31;56185;48.526;9.044;2023-01-04T17:49:16;9.81;77.98
69084;SHT31;56185;48.526;9.044;2023-01-04T17:51:41;9.77;78.12
69084;SHT31;56185;48.526;9.044;2023-01-04T17:54:08;9.69;78.38
69084;SHT31;56185;48.526;9.044;2023-01-04T17:56:33;9.77;78.16